sensor_id;sensor_type;location;lat;lon;timestamp;temperature;humidity
61916;DHT22;47868;51.326;6.550;2022-09-09T00:15:25;18.90;99.90
61916;DHT22;47868;51.326;6.550;2022-09-09T00:18:19;18.90;99.90
61916;DHT22;47868;51.326;6.550;2022-09-09T00:21:06;18.80;99.90
61916;DHT22;47868;51.326;6.550;2022-09-09T00:23:39;18.80;99.90
61916;DHT22;47868;51.326;6.550;2022-09-09T00:31:35;18.70;99.90
61916;DHT22;47868;51.326;6.550;2022-09-09T00:34:13;18.70;99.90
61916;DHT22;47868;51.326;6.550;2022-09-09T00:36:41;18.60;99.90
61916;DHT22;47868;51.326;6.550;2022-09-09T00:39:32;18.60;99.90
61916;DHT22;47868;51.326;6.550;2022-09-09T00:42:25;18.50;99.90
61916;DHT22;47868;51.326;6.550;2022-09-09T00:45:18;18.50;99.90
61916;DHT22;47868;51.326;6.550;2022-09-09T00:47:52;18.50;99.90
61916;DHT22;47868;51.326;6.550;2022-09-09T00:56:23;18.40;99.90
61916;DHT22;47868;51.326;6.550;2022-09-09T00:59:19;18.40;99.90
61916;DHT22;47868;51.326;6.550;2022-09-09T01:01:50;18.30;99.90
61916;DHT22;47868;51.326;6.550;2022-09-09T01:04:29;18.30;99.90
61916;DHT22;47868;51.326;6.550;2022-09-09T01:07:05;18.30;99.90
61916;DHT22;47868;51.326;6.550;2022-09-09T01:09:52;18.30;99.90
61916;DHT22;47868;51.326;6.550;2022-09-09T01:12:35;18.30;99.90
61916;DHT22;47868;51.326;6.550;2022-09-09T01:17:35;18.20;99.90
61916;DHT22;47868;51.326;6.550;2022-09-09T01:28:18;18.30;99.90
61916;DHT22;47868;51.326;6.550;2022-09-09T01:30:46;18.20;99.90
61916;DHT22;47868;51.326;6.550;2022-09-09T01:33:17;18.30;99.90
61916;DHT22;47868;51.326;6.550;2022-09-09T01:35:53;18.30;99.90
61916;DHT22;47868;51.326;6.550;2022-09-09T01:38:24;18.30;99.90
61916;DHT22;47868;51.326;6.550;2022-09-09T01:40:50;18.20;99.90
61916;DHT22;47868;51.326;6.550;2022-09-09T01:43:21;18.10;99.90
61916;DHT22;47868;51.326;6.550;2022-09-09T01:45:50;18.10;99.90
61916;DHT22;47868;51.326;6.550;2022-09-09T01:48:16;18.10;99.90
61916;DHT22;47868;51.326;6.550;2022-09-09T01:50:43;18.10;99.90
61916;DHT22;47868;51.326;6.550;2022-09-09T01:53:09;18.10;99.90
61916;DHT22;47868;51.326;6.550;2022-09-09T01:55:40;18.20;99.90
61916;DHT22;47868;51.326;6.550;2022-09-09T01:58:33;18.10;99.90
61916;DHT22;47868;51.326;6.550;2022-09-09T02:03:35;18.10;99.90
61916;DHT22;47868;51.326;6.550;2022-09-09T02:06:38;18.20;99.90
61916;DHT22;47868;51.326;6.550;2022-09-09T02:09:07;18.10;99.90
61916;DHT22;47868;51.326;6.550;2022-09-09T02:11:36;18.10;99.90
61916;DHT22;47868;51.326;6.550;2022-09-09T02:14:07;18.10;99.90
61916;DHT22;47868;51.326;6.550;2022-09-09T02:16:47;18.10;99.90
61916;DHT22;47868;51.326;6.550;2022-09-09T02:19:22;18.10;99.90
61916;DHT22;47868;51.326;6.550;2022-09-09T02:21:52;18.20;99.90
61916;DHT22;47868;51.326;6.550;2022-09-09T02:24:19;18.10;99.90
61916;DHT22;47868;51.326;6.550;2022-09-09T02:26:49;18.10;99.90
61916;DHT22;47868;51.326;6.550;2022-09-09T02:29:19;18.10;99.90
61916;DHT22;47868;51.326;6.550;2022-09-09T02:31:46;18.20;99.90
61916;DHT22;47868;51.326;6.550;2022-09-09T02:34:14;18.20;99.90
61916;DHT22;47868;51.326;6.550;2022-09-09T02:36:43;18.10;99.90
61916;DHT22;47868;51.326;6.550;2022-09-09T02:39:09;18.10;99.90
61916;DHT22;47868;51.326;6.550;2022-09-09T02:41:39;18.10;99.90
61916;DHT22;47868;51.326;6.550;2022-09-09T02:44:10;18.10;99.90
61916;DHT22;47868;51.326;6.550;2022-09-09T02:52:13;18.00;99.90
61916;DHT22;47868;51.326;6.550;2022-09-09T02:54:41;18.00;99.90
61916;DHT22;47868;51.326;6.550;2022-09-09T02:57:16;18.00;99.90
61916;DHT22;47868;51.326;6.550;2022-09-09T02:59:44;18.00;99.90
61916;DHT22;47868;51.326;6.550;2022-09-09T03:02:10;18.10;99.90
61916;DHT22;47868;51.326;6.550;2022-09-09T03:04:37;18.10;99.90
61916;DHT22;47868;51.326;6.550;2022-09-09T03:07:03;18.10;99.90
61916;DHT22;47868;51.326;6.550;2022-09-09T03:09:29;18.00;99.90
61916;DHT22;47868;51.326;6.550;2022-09-09T03:11:55;18.10;99.90
61916;DHT22;47868;51.326;6.550;2022-09-09T03:14:22;18.10;99.90
61916;DHT22;47868;51.326;6.550;2022-09-09T03:16:51;18.00;99.90
61916;DHT22;47868;51.326;6.550;2022-09-09T03:19:17;18.00;99.90
61916;DHT22;47868;51.326;6.550;2022-09-09T03:21:46;18.00;99.90
61916;DHT22;47868;51.326;6.550;2022-09-09T03:24:12;18.00;99.90
61916;DHT22;47868;51.326;6.550;2022-09-09T03:26:39;17.90;99.90
61916;DHT22;47868;51.326;6.550;2022-09-09T03:29:06;17.90;99.90
61916;DHT22;47868;51.326;6.550;2022-09-09T03:31:33;17.80;99.90
61916;DHT22;47868;51.326;6.550;2022-09-09T03:33:59;17.80;99.90
61916;DHT22;47868;51.326;6.550;2022-09-09T03:36:25;17.80;99.90
61916;DHT22;47868;51.326;6.550;2022-09-09T03:38:52;17.80;99.90
61916;DHT22;47868;51.326;6.550;2022-09-09T03:41:19;17.70;99.90
61916;DHT22;47868;51.326;6.550;2022-09-09T03:43:49;17.70;99.90
61916;DHT22;47868;51.326;6.550;2022-09-09T03:46:15;17.70;99.90
61916;DHT22;47868;51.326;6.550;2022-09-09T03:48:41;17.70;99.90
61916;DHT22;47868;51.326;6.550;2022-09-09T03:51:06;17.70;99.90
61916;DHT22;47868;51.326;6.550;2022-09-09T03:53:32;17.70;99.90
61916;DHT22;47868;51.326;6.550;2022-09-09T03:55:58;17.70;99.90
61916;DHT22;47868;51.326;6.550;2022-09-09T03:58:25;17.70;99.90
61916;DHT22;47868;51.326;6.550;2022-09-09T04:01:05;17.80;99.90
61916;DHT22;47868;51.326;6.550;2022-09-09T04:03:32;17.80;99.90
61916;DHT22;47868;51.326;6.550;2022-09-09T04:05:59;17.80;99.90
61916;DHT22;47868;51.326;6.550;2022-09-09T04:08:26;17.80;99.90
61916;DHT22;47868;51.326;6.550;2022-09-09T04:10:52;17.80;99.90
61916;DHT22;47868;51.326;6.550;2022-09-09T04:13:19;17.80;99.90
61916;DHT22;47868;51.326;6.550;2022-09-09T04:15:54;17.80;99.90
61916;DHT22;47868;51.326;6.550;2022-09-09T04:18:20;17.80;99.90
61916;DHT22;47868;51.326;6.550;2022-09-09T04:20:47;17.80;99.90
61916;DHT22;47868;51.326;6.550;2022-09-09T04:23:13;17.90;99.90
61916;DHT22;47868;51.326;6.550;2022-09-09T04:25:47;17.90;99.90
61916;DHT22;47868;51.326;6.550;2022-09-09T04:28:14;17.90;99.90
61916;DHT22;47868;51.326;6.550;2022-09-09T04:30:40;17.90;99.90
61916;DHT22;47868;51.326;6.550;2022-09-09T04:33:06;17.90;99.90
61916;DHT22;47868;51.326;6.550;2022-09-09T04:35:32;17.90;99.90
61916;DHT22;47868;51.326;6.550;2022-09-09T04:37:58;17.90;99.90
61916;DHT22;47868;51.326;6.550;2022-09-09T04:40:24;17.90;99.90
61916;DHT22;47868;51.326;6.550;2022-09-09T04:42:50;17.90;99.90
61916;DHT22;47868;51.326;6.550;2022-09-09T04:45:16;17.90;99.90
61916;DHT22;47868;51.326;6.550;2022-09-09T04:47:42;17.90;99.90
61916;DHT22;47868;51.326;6.550;2022-09-09T04:50:08;17.90;99.90
61916;DHT22;47868;51.326;6.550;2022-09-09T04:52:35;17.90;99.90
61916;DHT22;47868;51.326;6.550;2022-09-09T04:55:01;17.90;99.90
61916;DHT22;47868;51.326;6.550;2022-09-09T04:57:27;17.90;99.90
61916;DHT22;47868;51.326;6.550;2022-09-09T04:59:54;17.90;99.90
61916;DHT22;47868;51.326;6.550;2022-09-09T05:02:20;17.90;99.90
61916;DHT22;47868;51.326;6.550;2022-09-09T05:04:45;18.00;99.90
61916;DHT22;47868;51.326;6.550;2022-09-09T05:07:11;18.00;99.90
61916;DHT22;47868;51.326;6.550;2022-09-09T05:09:36;17.90;99.90
61916;DHT22;47868;51.326;6.550;2022-09-09T05:12:02;17.90;99.90
61916;DHT22;47868;51.326;6.550;2022-09-09T05:14:28;18.00;99.90
61916;DHT22;47868;51.326;6.550;2022-09-09T05:16:55;18.00;99.90
61916;DHT22;47868;51.326;6.550;2022-09-09T05:19:21;18.00;99.90
61916;DHT22;47868;51.326;6.550;2022-09-09T05:21:47;18.00;99.90
61916;DHT22;47868;51.326;6.550;2022-09-09T05:24:13;18.00;99.90
61916;DHT22;47868;51.326;6.550;2022-09-09T05:26:38;18.00;99.90
61916;DHT22;47868;51.326;6.550;2022-09-09T05:29:04;18.00;99.90
61916;DHT22;47868;51.326;6.550;2022-09-09T05:31:30;18.00;99.90
61916;DHT22;47868;51.326;6.550;2022-09-09T05:33:56;18.00;99.90
61916;DHT22;47868;51.326;6.550;2022-09-09T05:36:22;18.00;99.90
61916;DHT22;47868;51.326;6.550;2022-09-09T05:38:49;18.00;99.90
61916;DHT22;47868;51.326;6.550;2022-09-09T05:41:16;18.10;99.90
61916;DHT22;47868;51.326;6.550;2022-09-09T05:43:43;18.00;99.90
61916;DHT22;47868;51.326;6.550;2022-09-09T05:46:23;18.00;99.90
61916;DHT22;47868;51.326;6.550;2022-09-09T05:48:50;18.10;99.90
61916;DHT22;47868;51.326;6.550;2022-09-09T05:51:27;18.00;99.90
61916;DHT22;47868;51.326;6.550;2022-09-09T05:53:55;18.00;99.90
61916;DHT22;47868;51.326;6.550;2022-09-09T05:56:25;18.00;99.90
61916;DHT22;47868;51.326;6.550;2022-09-09T05:58:51;18.00;99.90
61916;DHT22;47868;51.326;6.550;2022-09-09T06:01:27;18.00;99.90
61916;DHT22;47868;51.326;6.550;2022-09-09T06:03:54;18.00;99.90
61916;DHT22;47868;51.326;6.550;2022-09-09T06:06:31;18.00;99.90
61916;DHT22;47868;51.326;6.550;2022-09-09T06:09:00;18.00;99.90
61916;DHT22;47868;51.326;6.550;2022-09-09T06:11:30;18.00;99.90
61916;DHT22;47868;51.326;6.550;2022-09-09T06:13:56;18.00;99.90
61916;DHT22;47868;51.326;6.550;2022-09-09T06:16:24;18.10;99.90
61916;DHT22;47868;51.326;6.550;2022-09-09T06:18:51;18.10;99.90
61916;DHT22;47868;51.326;6.550;2022-09-09T06:21:18;18.10;99.90
61916;DHT22;47868;51.326;6.550;2022-09-09T06:23:44;18.10;99.90
61916;DHT22;47868;51.326;6.550;2022-09-09T06:26:18;18.10;99.90
61916;DHT22;47868;51.326;6.550;2022-09-09T06:28:45;18.10;99.90
61916;DHT22;47868;51.326;6.550;2022-09-09T06:31:13;18.10;99.90
61916;DHT22;47868;51.326;6.550;2022-09-09T06:33:40;18.20;99.90
61916;DHT22;47868;51.326;6.550;2022-09-09T06:36:10;18.30;99.90
61916;DHT22;47868;51.326;6.550;2022-09-09T06:38:36;18.30;99.90
61916;DHT22;47868;51.326;6.550;2022-09-09T06:41:02;18.40;99.90
61916;DHT22;47868;51.326;6.550;2022-09-09T06:43:28;18.40;99.90
61916;DHT22;47868;51.326;6.550;2022-09-09T06:48:29;18.50;99.90
61916;DHT22;47868;51.326;6.550;2022-09-09T06:51:12;18.60;99.90
61916;DHT22;47868;51.326;6.550;2022-09-09T06:53:40;18.70;99.90
61916;DHT22;47868;51.326;6.550;2022-09-09T06:58:51;18.80;99.90
61916;DHT22;47868;51.326;6.550;2022-09-09T07:01:19;18.80;99.90
61916;DHT22;47868;51.326;6.550;2022-09-09T07:03:47;18.80;99.90
61916;DHT22;47868;51.326;6.550;2022-09-09T07:06:28;18.80;99.90
61916;DHT22;47868;51.326;6.550;2022-09-09T07:08:55;18.80;99.90
61916;DHT22;47868;51.326;6.550;2022-09-09T07:11:23;18.80;99.90
61916;DHT22;47868;51.326;6.550;2022-09-09T07:13:51;18.70;99.90
61916;DHT22;47868;51.326;6.550;2022-09-09T07:16:18;18.80;99.90
61916;DHT22;47868;51.326;6.550;2022-09-09T07:18:44;18.80;99.90
61916;DHT22;47868;51.326;6.550;2022-09-09T07:21:11;18.90;99.90
61916;DHT22;47868;51.326;6.550;2022-09-09T07:23:38;18.90;99.90
61916;DHT22;47868;51.326;6.550;2022-09-09T07:26:15;19.00;99.90
61916;DHT22;47868;51.326;6.550;2022-09-09T07:28:41;19.00;99.90
61916;DHT22;47868;51.326;6.550;2022-09-09T07:31:15;19.10;99.90
61916;DHT22;47868;51.326;6.550;2022-09-09T07:33:42;19.20;99.90
61916;DHT22;47868;51.326;6.550;2022-09-09T07:36:14;19.30;99.90
61916;DHT22;47868;51.326;6.550;2022-09-09T07:38:41;19.30;99.90
61916;DHT22;47868;51.326;6.550;2022-09-09T07:41:10;19.30;99.90
61916;DHT22;47868;51.326;6.550;2022-09-09T07:43:40;19.40;99.90
61916;DHT22;47868;51.326;6.550;2022-09-09T07:46:07;19.40;99.90
61916;DHT22;47868;51.326;6.550;2022-09-09T07:48:33;19.50;99.90
61916;DHT22;47868;51.326;6.550;2022-09-09T07:51:15;19.60;99.90
61916;DHT22;47868;51.326;6.550;2022-09-09T07:53:46;19.70;99.90
61916;DHT22;47868;51.326;6.550;2022-09-09T07:56:15;19.80;99.90
61916;DHT22;47868;51.326;6.550;2022-09-09T07:58:44;19.80;99.90
61916;DHT22;47868;51.326;6.550;2022-09-09T08:01:13;19.80;99.90
61916;DHT22;47868;51.326;6.550;2022-09-09T08:03:39;19.80;99.90
61916;DHT22;47868;51.326;6.550;2022-09-09T08:06:07;19.80;99.90
61916;DHT22;47868;51.326;6.550;2022-09-09T08:08:35;19.90;99.90
61916;DHT22;47868;51.326;6.550;2022-09-09T08:11:12;20.10;99.90
61916;DHT22;47868;51.326;6.550;2022-09-09T08:13:40;20.30;99.90
61916;DHT22;47868;51.326;6.550;2022-09-09T08:16:16;20.40;99.90
61916;DHT22;47868;51.326;6.550;2022-09-09T08:18:42;20.60;99.90
61916;DHT22;47868;51.326;6.550;2022-09-09T08:21:12;20.80;99.90
61916;DHT22;47868;51.326;6.550;2022-09-09T08:23:39;21.00;99.90
61916;DHT22;47868;51.326;6.550;2022-09-09T08:28:36;21.50;99.90
61916;DHT22;47868;51.326;6.550;2022-09-09T08:31:28;21.50;99.90
61916;DHT22;47868;51.326;6.550;2022-09-09T08:33:55;21.50;99.90
61916;DHT22;47868;51.326;6.550;2022-09-09T08:36:24;21.30;99.90
61916;DHT22;47868;51.326;6.550;2022-09-09T08:38:53;21.10;99.90
61916;DHT22;47868;51.326;6.550;2022-09-09T08:42:00;20.90;99.90
61916;DHT22;47868;51.326;6.550;2022-09-09T08:58:50;20.70;99.90
61916;DHT22;47868;51.326;6.550;2022-09-09T09:01:24;20.70;99.90
61916;DHT22;47868;51.326;6.550;2022-09-09T09:09:42;20.80;99.90
61916;DHT22;47868;51.326;6.550;2022-09-09T09:12:17;20.80;99.90
61916;DHT22;47868;51.326;6.550;2022-09-09T09:14:46;20.70;99.90
61916;DHT22;47868;51.326;6.550;2022-09-09T09:17:18;20.70;99.90
61916;DHT22;47868;51.326;6.550;2022-09-09T09:19:45;20.50;99.90
61916;DHT22;47868;51.326;6.550;2022-09-09T09:22:48;20.50;99.90
61916;DHT22;47868;51.326;6.550;2022-09-09T09:25:21;20.60;99.90
61916;DHT22;47868;51.326;6.550;2022-09-09T09:31:16;20.90;99.90
61916;DHT22;47868;51.326;6.550;2022-09-09T09:33:50;21.30;99.90
61916;DHT22;47868;51.326;6.550;2022-09-09T09:36:19;21.50;99.90
61916;DHT22;47868;51.326;6.550;2022-09-09T09:38:59;21.40;99.90
61916;DHT22;47868;51.326;6.550;2022-09-09T09:43:55;21.40;99.90
61916;DHT22;47868;51.326;6.550;2022-09-09T09:46:23;21.50;99.90
61916;DHT22;47868;51.326;6.550;2022-09-09T09:48:59;21.50;99.90
61916;DHT22;47868;51.326;6.550;2022-09-09T09:51:26;21.40;99.90
61916;DHT22;47868;51.326;6.550;2022-09-09T09:53:52;21.50;99.90
61916;DHT22;47868;51.326;6.550;2022-09-09T09:56:26;21.70;99.90
61916;DHT22;47868;51.326;6.550;2022-09-09T09:58:54;21.70;99.90
61916;DHT22;47868;51.326;6.550;2022-09-09T10:03:57;21.80;99.90
61916;DHT22;47868;51.326;6.550;2022-09-09T10:06:34;21.80;99.90
61916;DHT22;47868;51.326;6.550;2022-09-09T10:09:01;21.70;99.90
61916;DHT22;47868;51.326;6.550;2022-09-09T10:14:39;21.50;99.90
61916;DHT22;47868;51.326;6.550;2022-09-09T10:34:17;20.90;99.90
61916;DHT22;47868;51.326;6.550;2022-09-09T10:36:48;21.10;99.90
61916;DHT22;47868;51.326;6.550;2022-09-09T10:41:56;21.70;99.90
61916;DHT22;47868;51.326;6.550;2022-09-09T10:55:20;21.60;99.90
61916;DHT22;47868;51.326;6.550;2022-09-09T10:57:53;21.40;99.90
61916;DHT22;47868;51.326;6.550;2022-09-09T11:03:03;21.50;99.90
61916;DHT22;47868;51.326;6.550;2022-09-09T11:05:51;21.70;99.90
61916;DHT22;47868;51.326;6.550;2022-09-09T11:08:23;22.10;99.90
61916;DHT22;47868;51.326;6.550;2022-09-09T11:11:01;22.10;99.90
61916;DHT22;47868;51.326;6.550;2022-09-09T11:18:41;22.30;99.90
61916;DHT22;47868;51.326;6.550;2022-09-09T11:21:23;22.30;99.90
61916;DHT22;47868;51.326;6.550;2022-09-09T11:26:52;22.40;99.90
61916;DHT22;47868;51.326;6.550;2022-09-09T11:29:44;22.50;99.90
61916;DHT22;47868;51.326;6.550;2022-09-09T11:38:08;22.60;99.90
61916;DHT22;47868;51.326;6.550;2022-09-09T11:40:39;22.60;99.70
61916;DHT22;47868;51.326;6.550;2022-09-09T11:46:00;22.10;99.90
61916;DHT22;47868;51.326;6.550;2022-09-09T11:48:35;21.80;99.90
61916;DHT22;47868;51.326;6.550;2022-09-09T11:51:06;21.80;99.90
61916;DHT22;47868;51.326;6.550;2022-09-09T11:53:33;22.00;99.90
61916;DHT22;47868;51.326;6.550;2022-09-09T11:56:08;22.30;99.90
61916;DHT22;47868;51.326;6.550;2022-09-09T11:58:40;22.80;99.90
61916;DHT22;47868;51.326;6.550;2022-09-09T12:01:43;24.00;98.60
61916;DHT22;47868;51.326;6.550;2022-09-09T12:04:39;24.00;96.90
61916;DHT22;47868;51.326;6.550;2022-09-09T12:09:50;22.60;98.40
61916;DHT22;47868;51.326;6.550;2022-09-09T12:17:46;21.50;99.90
61916;DHT22;47868;51.326;6.550;2022-09-09T12:20:19;21.50;99.90
61916;DHT22;47868;51.326;6.550;2022-09-09T12:25:30;22.10;99.90
61916;DHT22;47868;51.326;6.550;2022-09-09T12:28:19;22.30;99.90
61916;DHT22;47868;51.326;6.550;2022-09-09T12:33:43;21.90;99.90
61916;DHT22;47868;51.326;6.550;2022-09-09T12:36:16;21.80;99.90
61916;DHT22;47868;51.326;6.550;2022-09-09T12:38:44;21.60;99.90
61916;DHT22;47868;51.326;6.550;2022-09-09T12:41:36;21.50;99.90
61916;DHT22;47868;51.326;6.550;2022-09-09T12:44:06;21.40;99.90
61916;DHT22;47868;51.326;6.550;2022-09-09T12:46:38;21.60;99.90
61916;DHT22;47868;51.326;6.550;2022-09-09T12:49:04;21.70;99.90
61916;DHT22;47868;51.326;6.550;2022-09-09T12:51:33;22.00;99.90
61916;DHT22;47868;51.326;6.550;2022-09-09T12:54:00;22.00;99.90
61916;DHT22;47868;51.326;6.550;2022-09-09T12:56:28;22.10;99.90
61916;DHT22;47868;51.326;6.550;2022-09-09T12:58:57;22.30;99.90
61916;DHT22;47868;51.326;6.550;2022-09-09T13:01:31;23.20;99.90
61916;DHT22;47868;51.326;6.550;2022-09-09T13:03:59;24.00;99.90
61916;DHT22;47868;51.326;6.550;2022-09-09T13:06:29;24.70;99.90
61916;DHT22;47868;51.326;6.550;2022-09-09T13:08:57;25.40;99.90
61916;DHT22;47868;51.326;6.550;2022-09-09T13:11:39;26.00;99.90
61916;DHT22;47868;51.326;6.550;2022-09-09T13:14:05;28.20;99.80
61916;DHT22;47868;51.326;6.550;2022-09-09T13:16:35;31.00;87.20
61916;DHT22;47868;51.326;6.550;2022-09-09T13:19:14;30.90;76.30
61916;DHT22;47868;51.326;6.550;2022-09-09T13:21:40;30.50;76.10
61916;DHT22;47868;51.326;6.550;2022-09-09T13:24:20;33.10;68.60
61916;DHT22;47868;51.326;6.550;2022-09-09T13:26:59;35.70;57.10
61916;DHT22;47868;51.326;6.550;2022-09-09T13:29:28;37.80;47.10
61916;DHT22;47868;51.326;6.550;2022-09-09T13:31:54;38.90;42.20
61916;DHT22;47868;51.326;6.550;2022-09-09T13:34:33;39.10;39.70
61916;DHT22;47868;51.326;6.550;2022-09-09T13:37:05;38.90;38.00
61916;DHT22;47868;51.326;6.550;2022-09-09T13:39:36;39.30;37.20
61916;DHT22;47868;51.326;6.550;2022-09-09T13:42:02;41.60;35.30
61916;DHT22;47868;51.326;6.550;2022-09-09T13:44:33;43.00;32.40
61916;DHT22;47868;51.326;6.550;2022-09-09T13:47:06;44.00;29.40
61916;DHT22;47868;51.326;6.550;2022-09-09T13:49:41;39.00;30.70
61916;DHT22;47868;51.326;6.550;2022-09-09T13:52:15;34.90;36.50
61916;DHT22;47868;51.326;6.550;2022-09-09T13:54:43;32.30;41.20
61916;DHT22;47868;51.326;6.550;2022-09-09T13:57:30;30.40;45.00
61916;DHT22;47868;51.326;6.550;2022-09-09T13:59:56;32.90;45.80
61916;DHT22;47868;51.326;6.550;2022-09-09T14:02:21;34.20;41.60
61916;DHT22;47868;51.326;6.550;2022-09-09T14:04:48;33.40;42.20
61916;DHT22;47868;51.326;6.550;2022-09-09T14:07:16;32.50;42.40
61916;DHT22;47868;51.326;6.550;2022-09-09T14:09:43;30.20;46.00
61916;DHT22;47868;51.326;6.550;2022-09-09T14:12:12;28.10;49.90
61916;DHT22;47868;51.326;6.550;2022-09-09T14:14:40;26.70;53.50
61916;DHT22;47868;51.326;6.550;2022-09-09T14:17:07;25.30;58.80
61916;DHT22;47868;51.326;6.550;2022-09-09T14:19:33;23.80;63.80
61916;DHT22;47868;51.326;6.550;2022-09-09T14:21:59;22.80;74.90
61916;DHT22;47868;51.326;6.550;2022-09-09T14:24:25;22.20;84.00
61916;DHT22;47868;51.326;6.550;2022-09-09T14:26:51;21.70;94.60
61916;DHT22;47868;51.326;6.550;2022-09-09T14:29:17;21.40;98.30
61916;DHT22;47868;51.326;6.550;2022-09-09T14:31:43;21.00;99.90
61916;DHT22;47868;51.326;6.550;2022-09-09T14:34:08;21.00;99.90
61916;DHT22;47868;51.326;6.550;2022-09-09T14:36:35;20.90;99.90
61916;DHT22;47868;51.326;6.550;2022-09-09T14:39:01;20.90;99.90
61916;DHT22;47868;51.326;6.550;2022-09-09T14:41:26;20.90;99.90
61916;DHT22;47868;51.326;6.550;2022-09-09T14:43:52;21.10;99.90
61916;DHT22;47868;51.326;6.550;2022-09-09T14:46:20;21.30;99.90
61916;DHT22;47868;51.326;6.550;2022-09-09T14:48:46;21.40;99.90
61916;DHT22;47868;51.326;6.550;2022-09-09T14:51:20;21.40;99.90
61916;DHT22;47868;51.326;6.550;2022-09-09T14:53:48;21.50;99.90
61916;DHT22;47868;51.326;6.550;2022-09-09T14:56:18;21.50;99.90
61916;DHT22;47868;51.326;6.550;2022-09-09T14:58:44;21.80;99.90
61916;DHT22;47868;51.326;6.550;2022-09-09T15:01:12;22.00;99.90
61916;DHT22;47868;51.326;6.550;2022-09-09T15:03:39;22.30;99.90
61916;DHT22;47868;51.326;6.550;2022-09-09T15:06:13;22.50;99.90
61916;DHT22;47868;51.326;6.550;2022-09-09T15:08:41;22.50;99.90
61916;DHT22;47868;51.326;6.550;2022-09-09T15:11:08;22.70;99.90
61916;DHT22;47868;51.326;6.550;2022-09-09T15:13:34;23.00;99.90
61916;DHT22;47868;51.326;6.550;2022-09-09T15:16:23;23.60;99.90
61916;DHT22;47868;51.326;6.550;2022-09-09T15:18:51;28.60;99.90
61916;DHT22;47868;51.326;6.550;2022-09-09T15:21:21;30.10;91.00
61916;DHT22;47868;51.326;6.550;2022-09-09T15:23:48;29.40;88.20
61916;DHT22;47868;51.326;6.550;2022-09-09T15:26:14;29.70;88.10
61916;DHT22;47868;51.326;6.550;2022-09-09T15:28:41;30.80;78.90
61916;DHT22;47868;51.326;6.550;2022-09-09T15:31:20;29.80;77.00
61916;DHT22;47868;51.326;6.550;2022-09-09T15:33:57;28.10;82.10
61916;DHT22;47868;51.326;6.550;2022-09-09T15:36:28;27.00;90.60
61916;DHT22;47868;51.326;6.550;2022-09-09T15:38:54;26.40;93.80
61916;DHT22;47868;51.326;6.550;2022-09-09T15:41:22;25.80;94.10
61916;DHT22;47868;51.326;6.550;2022-09-09T15:43:49;24.90;96.30
61916;DHT22;47868;51.326;6.550;2022-09-09T15:48:53;24.10;99.90
61916;DHT22;47868;51.326;6.550;2022-09-09T15:51:20;23.80;99.90
61916;DHT22;47868;51.326;6.550;2022-09-09T15:53:46;23.70;99.90
61916;DHT22;47868;51.326;6.550;2022-09-09T15:56:12;23.60;99.90
61916;DHT22;47868;51.326;6.550;2022-09-09T15:58:38;24.30;99.90
61916;DHT22;47868;51.326;6.550;2022-09-09T16:01:04;25.30;99.90
61916;DHT22;47868;51.326;6.550;2022-09-09T16:03:34;26.10;99.90
61916;DHT22;47868;51.326;6.550;2022-09-09T16:06:00;25.80;99.90
61916;DHT22;47868;51.326;6.550;2022-09-09T16:08:32;25.40;99.90
61916;DHT22;47868;51.326;6.550;2022-09-09T16:11:07;25.00;99.90
61916;DHT22;47868;51.326;6.550;2022-09-09T16:13:36;24.90;99.90
61916;DHT22;47868;51.326;6.550;2022-09-09T16:16:03;24.40;99.90
61916;DHT22;47868;51.326;6.550;2022-09-09T16:18:44;23.90;99.90
61916;DHT22;47868;51.326;6.550;2022-09-09T16:21:19;23.50;99.90
61916;DHT22;47868;51.326;6.550;2022-09-09T16:23:45;23.20;99.90
61916;DHT22;47868;51.326;6.550;2022-09-09T16:26:13;23.00;99.90
61916;DHT22;47868;51.326;6.550;2022-09-09T16:28:39;22.90;99.90
61916;DHT22;47868;51.326;6.550;2022-09-09T16:31:17;22.70;99.90
61916;DHT22;47868;51.326;6.550;2022-09-09T16:33:43;22.60;99.90
61916;DHT22;47868;51.326;6.550;2022-09-09T16:36:12;22.70;99.90
61916;DHT22;47868;51.326;6.550;2022-09-09T16:38:38;22.80;99.90
61916;DHT22;47868;51.326;6.550;2022-09-09T16:41:05;22.90;99.90
61916;DHT22;47868;51.326;6.550;2022-09-09T16:43:35;22.80;99.90
61916;DHT22;47868;51.326;6.550;2022-09-09T16:46:12;22.80;99.90
61916;DHT22;47868;51.326;6.550;2022-09-09T16:48:38;22.80;99.90
61916;DHT22;47868;51.326;6.550;2022-09-09T16:51:11;22.60;99.90
61916;DHT22;47868;51.326;6.550;2022-09-09T16:53:37;22.50;99.90
61916;DHT22;47868;51.326;6.550;2022-09-09T16:56:07;22.30;99.90
61916;DHT22;47868;51.326;6.550;2022-09-09T16:58:33;22.20;99.90
61916;DHT22;47868;51.326;6.550;2022-09-09T17:01:00;22.20;99.90
61916;DHT22;47868;51.326;6.550;2022-09-09T17:03:28;22.10;99.90
61916;DHT22;47868;51.326;6.550;2022-09-09T17:05:54;22.00;99.90
61916;DHT22;47868;51.326;6.550;2022-09-09T17:08:19;21.90;99.90
61916;DHT22;47868;51.326;6.550;2022-09-09T17:10:45;21.70;99.90
61916;DHT22;47868;51.326;6.550;2022-09-09T17:13:11;21.60;99.90
61916;DHT22;47868;51.326;6.550;2022-09-09T17:15:42;21.60;99.90
61916;DHT22;47868;51.326;6.550;2022-09-09T17:18:12;21.50;99.90
61916;DHT22;47868;51.326;6.550;2022-09-09T17:20:39;21.50;99.90
61916;DHT22;47868;51.326;6.550;2022-09-09T17:23:07;21.40;99.90
61916;DHT22;47868;51.326;6.550;2022-09-09T17:25:33;21.40;99.90
61916;DHT22;47868;51.326;6.550;2022-09-09T17:27:59;21.40;99.90
61916;DHT22;47868;51.326;6.550;2022-09-09T17:30:25;21.30;99.90
61916;DHT22;47868;51.326;6.550;2022-09-09T17:32:51;21.40;99.90
61916;DHT22;47868;51.326;6.550;2022-09-09T17:35:17;21.30;99.90
61916;DHT22;47868;51.326;6.550;2022-09-09T17:37:43;21.20;99.90
61916;DHT22;47868;51.326;6.550;2022-09-09T17:40:10;21.20;99.90
61916;DHT22;47868;51.326;6.550;2022-09-09T17:42:36;21.00;99.90
61916;DHT22;47868;51.326;6.550;2022-09-09T17:45:02;20.90;99.90
61916;DHT22;47868;51.326;6.550;2022-09-09T17:47:28;20.90;99.90
61916;DHT22;47868;51.326;6.550;2022-09-09T17:49:56;20.80;99.90
61916;DHT22;47868;51.326;6.550;2022-09-09T17:52:22;20.80;99.90
61916;DHT22;47868;51.326;6.550;2022-09-09T17:54:48;20.70;99.90
61916;DHT22;47868;51.326;6.550;2022-09-09T17:57:15;20.70;99.90
61916;DHT22;47868;51.326;6.550;2022-09-09T17:59:42;20.70;99.90
61916;DHT22;47868;51.326;6.550;2022-09-09T18:02:11;20.60;99.90
61916;DHT22;47868;51.326;6.550;2022-09-09T18:04:36;20.60;99.90
61916;DHT22;47868;51.326;6.550;2022-09-09T18:07:02;20.50;99.90
61916;DHT22;47868;51.326;6.550;2022-09-09T18:09:28;20.50;99.90
61916;DHT22;47868;51.326;6.550;2022-09-09T18:11:56;20.40;99.90
61916;DHT22;47868;51.326;6.550;2022-09-09T18:14:28;20.40;99.90
61916;DHT22;47868;51.326;6.550;2022-09-09T18:16:56;20.40;99.90
61916;DHT22;47868;51.326;6.550;2022-09-09T18:19:25;20.40;99.90